Nuiqsut Information

FAA: AQT - ICAO: PAQT

Nuiqsut (Airport) Location

State Alaska
County North Slope
City Nuiqsut
Nuiqsut (Airport) is 0 miles south of Nuiqsut, AK.
Latitude 70-12-35.4000N
Longitude 151-00-23.3000W
Elevation 45ft

Nuiqsut METARs

METAR PAQT 262253Z AUTO 24016KT 3SM HZ CLR M29/M33 A3051 RMK AO2 SLP334 T12941328 TSNO PNO
Altimeter 30.51"
Temperature -29.4°C (-20.9°F)
Wind 240° at 16KT
Clouds Skies are clear.
Visibility 3.0mi
Time observed: 2022-01-26T22:53:00Z

Nuiqsut (Airport) Details

Status Operational
Activation June 1977
Ownership Public
Usage Public
Chart POINT BARROW
ATC on-site No
Beacon schedule sunset-sunrise
Beacon color clear green

Nuiqsut (Airport) Contacts

Owner NORTH SLOPE BOROUGH
Owner address BOX 69, BARROW, AK 99723
Owner phone 907-852-2611
Manager ED HERRMAN
Manager address 237 E FIREWEED LN , SUITE 200, ANCHORAGE, AK 99503-2000
Manager phone N/A

Nuiqsut Radio Frequencies

Nuiqsut (Airport) Radio Frequencies

UNICOM N/A
Common traffic advisory frequency (CTAF) 122.8